Terminal Aerodrome Forecast
Issued by NWS

Current Version | Previous Version | Graphics & Text | Print | Product List | Glossary On
Versions: 1 2 3 4 5 6 7 8 9 10 11 12 13 14 15 16 17 18 19
727
FTUS41 KRLX 280907 AAA
TAFCKB
TAF AMD
KCKB 280907Z 2809/2906 00000KT 4SM BR OVC011
     FM281300 VRB04KT 6SM BR BKN035
     FM281900 VRB03KT 2SM +SHRA BR VCTS OVC025CB
     FM282300 32005KT 2SM +SHRA BR OVC025=

USA.gov is the U.S. government's official web portal to all federal, state and local government web resources and services.